createdAt,value
2018-12-17T00:01:34.005Z,24.70
2018-12-17T00:04:00.846Z,24.97
2018-12-17T00:06:27.358Z,24.47
2018-12-17T00:08:53.961Z,26.13
2018-12-17T00:11:21.136Z,23.80
2018-12-17T00:13:47.616Z,23.60
2018-12-17T00:16:14.160Z,26.60
2018-12-17T00:18:40.937Z,26.70
2018-12-17T00:21:07.594Z,25.03
2018-12-17T00:23:34.142Z,24.73
2018-12-17T00:26:00.638Z,25.00
2018-12-17T00:28:27.212Z,24.30
2018-12-17T00:30:53.765Z,23.90
2018-12-17T00:33:20.363Z,25.97
2018-12-17T00:35:46.873Z,24.93
2018-12-17T00:38:13.392Z,23.80
2018-12-17T00:40:39.955Z,22.57
2018-12-17T00:43:06.831Z,23.90
2018-12-17T00:45:33.524Z,23.07
2018-12-17T00:48:00.135Z,24.30
2018-12-17T00:50:26.635Z,22.97
2018-12-17T00:52:53.743Z,23.40
2018-12-17T00:55:20.672Z,24.27
2018-12-17T00:57:47.177Z,26.27
2018-12-17T01:00:13.690Z,26.30
2018-12-17T01:05:36.899Z,26.50
2018-12-17T01:08:03.490Z,28.60
2018-12-17T01:10:29.988Z,24.43
2018-12-17T01:12:56.507Z,28.30
2018-12-17T01:15:23.277Z,24.17
2018-12-17T01:17:49.837Z,25.63
2018-12-17T01:20:16.374Z,24.67
2018-12-17T01:22:43.803Z,23.90
2018-12-17T01:25:10.455Z,23.20
2018-12-17T01:27:36.895Z,23.80
2018-12-17T01:30:04.840Z,20.50
2018-12-17T01:32:31.286Z,23.30
2018-12-17T01:34:57.755Z,25.27
2018-12-17T01:37:24.336Z,26.60
2018-12-17T01:39:50.858Z,25.40
2018-12-17T01:42:17.476Z,24.33
2018-12-17T01:44:44.286Z,24.07
2018-12-17T01:47:10.815Z,24.93
2018-12-17T01:49:37.387Z,24.43
2018-12-17T01:52:04.183Z,24.40
2018-12-17T01:54:30.754Z,24.70
2018-12-17T01:56:57.211Z,25.47
2018-12-17T01:59:23.988Z,24.40
2018-12-17T02:01:50.758Z,27.00
2018-12-17T02:04:17.347Z,25.67
2018-12-17T02:06:43.887Z,24.97
2018-12-17T02:09:10.459Z,25.60
2018-12-17T02:11:36.932Z,26.43
2018-12-17T02:14:03.738Z,26.33
2018-12-17T02:16:30.356Z,26.37
2018-12-17T02:18:56.918Z,25.43
2018-12-17T02:21:23.735Z,25.27
2018-12-17T02:23:50.538Z,26.43
2018-12-17T02:26:17.131Z,28.23
2018-12-17T02:28:43.891Z,26.67
2018-12-17T02:31:10.368Z,24.67
2018-12-17T02:33:36.832Z,25.43
2018-12-17T02:36:03.303Z,28.37
2018-12-17T02:38:29.783Z,24.43
2018-12-17T02:40:56.397Z,23.00
2018-12-17T02:43:23.179Z,26.17
2018-12-17T02:45:49.803Z,25.27
2018-12-17T02:48:16.315Z,25.30
2018-12-17T02:50:43.049Z,23.03
2018-12-17T02:53:09.541Z,23.90
2018-12-17T02:55:36.127Z,21.47
2018-12-17T02:58:02.669Z,24.97
2018-12-17T03:00:29.163Z,25.50
2018-12-17T03:02:55.764Z,23.37
2018-12-17T03:05:22.251Z,27.07
2018-12-17T03:07:48.779Z,22.90
2018-12-17T03:10:15.218Z,24.40
2018-12-17T03:12:41.772Z,24.63
2018-12-17T03:15:08.292Z,24.80
2018-12-17T03:17:34.914Z,23.50
2018-12-17T03:20:01.642Z,23.83
2018-12-17T03:22:28.151Z,22.70
2018-12-17T03:24:54.759Z,24.03
2018-12-17T03:27:21.261Z,25.10
2018-12-17T03:29:47.697Z,22.10
2018-12-17T03:32:14.198Z,24.07
2018-12-17T03:34:40.824Z,22.67
2018-12-17T03:37:07.336Z,22.83
2018-12-17T03:39:33.813Z,24.67
2018-12-17T03:42:00.541Z,22.70
2018-12-17T03:44:27.002Z,24.50
2018-12-17T03:46:53.512Z,23.63
2018-12-17T03:49:20.293Z,24.00
2018-12-17T03:51:46.765Z,24.70
2018-12-17T03:54:13.336Z,23.70
2018-12-17T03:56:39.823Z,24.40
2018-12-17T03:59:06.401Z,22.13
2018-12-17T04:01:32.858Z,25.47
2018-12-17T04:03:59.550Z,24.30
2018-12-17T04:06:26.131Z,23.20
2018-12-17T04:08:52.600Z,25.13
2018-12-17T04:11:19.397Z,24.80
2018-12-17T04:13:45.905Z,24.00
2018-12-17T04:16:12.399Z,22.90
2018-12-17T04:18:39.312Z,23.30
2018-12-17T04:21:05.843Z,23.60
2018-12-17T04:23:32.378Z,22.57
2018-12-17T04:25:58.865Z,24.80
2018-12-17T04:28:25.380Z,21.30
2018-12-17T04:30:51.846Z,24.80
2018-12-17T04:33:18.692Z,25.07
2018-12-17T04:35:45.199Z,24.43
2018-12-17T04:38:11.672Z,25.43
2018-12-17T04:40:38.353Z,24.87
2018-12-17T04:43:04.877Z,25.40
2018-12-17T04:45:31.310Z,24.70
2018-12-17T04:47:57.754Z,23.23
2018-12-17T04:50:24.227Z,24.50
2018-12-17T04:52:50.706Z,23.73
2018-12-17T04:55:17.445Z,26.63
2018-12-17T04:57:44.270Z,24.23
2018-12-17T05:00:10.739Z,24.10
2018-12-17T05:02:37.596Z,26.13
2018-12-17T05:05:04.196Z,25.80
2018-12-17T05:07:30.697Z,24.37
2018-12-17T05:09:57.186Z,24.20
2018-12-17T05:12:23.716Z,23.53
2018-12-17T05:14:50.277Z,24.13
2018-12-17T05:17:16.804Z,23.70
2018-12-17T05:19:43.249Z,23.90
2018-12-17T05:22:09.813Z,26.13
2018-12-17T05:24:36.352Z,24.57
2018-12-17T05:27:02.902Z,24.70
2018-12-17T05:29:29.431Z,24.53
2018-12-17T05:31:55.956Z,24.30
2018-12-17T05:34:22.448Z,23.37
2018-12-17T05:36:48.884Z,25.20
2018-12-17T05:39:15.360Z,23.27
2018-12-17T05:41:41.940Z,25.47
2018-12-17T05:44:08.400Z,25.47
2018-12-17T05:46:35.244Z,24.90
2018-12-17T05:49:03.403Z,22.20
2018-12-17T05:51:30.187Z,24.40
2018-12-17T05:53:56.973Z,23.73
2018-12-17T05:56:23.439Z,24.80
2018-12-17T05:58:49.899Z,25.10
2018-12-17T06:01:16.404Z,23.07
2018-12-17T06:03:42.883Z,24.57
2018-12-17T06:06:09.415Z,24.80
2018-12-17T06:08:36.288Z,24.73
2018-12-17T06:11:02.871Z,24.70
2018-12-17T06:13:29.376Z,24.97
2018-12-17T06:15:55.913Z,26.30
2018-12-17T06:18:22.423Z,24.47
2018-12-17T06:20:49.049Z,24.77
2018-12-17T06:23:15.531Z,26.03
2018-12-17T06:25:42.007Z,22.33
2018-12-17T06:28:08.491Z,26.50
2018-12-17T06:30:35.210Z,24.27
2018-12-17T06:33:01.608Z,25.73
2018-12-17T06:35:28.052Z,22.50
2018-12-17T06:37:54.824Z,24.87
2018-12-17T06:40:21.306Z,25.60
2018-12-17T06:42:47.779Z,25.60
2018-12-17T06:45:14.258Z,25.43
2018-12-17T06:47:40.848Z,24.17
2018-12-17T06:50:07.278Z,24.63
2018-12-17T06:52:33.783Z,24.73
2018-12-17T06:55:00.373Z,25.50
2018-12-17T06:57:26.884Z,24.73
2018-12-17T06:59:53.364Z,24.53
2018-12-17T07:02:20.275Z,25.23
2018-12-17T07:04:46.755Z,23.37
2018-12-17T07:07:13.486Z,24.93
2018-12-17T07:09:40.111Z,24.10
2018-12-17T07:12:06.585Z,24.30
2018-12-17T07:14:36.463Z,24.20
2018-12-17T07:17:01.703Z,24.97
2018-12-17T07:19:28.609Z,24.80
2018-12-17T07:21:55.335Z,25.20
2018-12-17T07:24:21.849Z,26.23
2018-12-17T07:26:48.327Z,25.83
2018-12-17T07:29:15.011Z,26.10
2018-12-17T07:31:41.458Z,25.30
2018-12-17T07:34:07.999Z,24.47
2018-12-17T07:36:34.739Z,24.87
2018-12-17T07:39:01.208Z,26.10
2018-12-17T07:41:27.683Z,25.37
2018-12-17T07:43:54.339Z,25.77
2018-12-17T07:46:20.816Z,25.03
2018-12-17T07:48:47.330Z,25.23
2018-12-17T07:51:14.034Z,23.90
2018-12-17T07:53:40.498Z,24.63
2018-12-17T07:56:07.015Z,26.70
2018-12-17T07:58:33.545Z,24.10
2018-12-17T08:01:00.058Z,25.70
2018-12-17T08:03:26.491Z,24.50
2018-12-17T08:05:53.321Z,25.17
2018-12-17T08:08:19.831Z,23.17
2018-12-17T08:10:46.294Z,23.77
2018-12-17T08:13:12.994Z,24.23
2018-12-17T08:15:39.540Z,25.53
2018-12-17T08:18:12.038Z,25.90
2018-12-17T08:20:38.849Z,25.77
2018-12-17T08:23:05.368Z,24.80
2018-12-17T08:25:31.791Z,24.17
2018-12-17T08:27:58.288Z,23.87
2018-12-17T08:30:24.731Z,25.53
2018-12-17T08:32:51.176Z,23.87
2018-12-17T08:35:17.672Z,25.20
2018-12-17T08:37:44.159Z,25.17
2018-12-17T08:40:10.616Z,24.50
2018-12-17T08:42:37.102Z,26.03
2018-12-17T08:45:10.519Z,23.97
2018-12-17T08:47:38.116Z,25.17
2018-12-17T08:50:11.525Z,25.27
2018-12-17T08:52:38.228Z,23.13
2018-12-17T08:55:04.774Z,25.57
2018-12-17T08:57:37.801Z,23.33
2018-12-17T08:59:59.949Z,25.10
2018-12-17T09:02:26.450Z,24.20
2018-12-17T09:04:52.972Z,24.67
2018-12-17T09:07:19.531Z,24.03
2018-12-17T09:09:45.995Z,24.10
2018-12-17T09:12:12.459Z,22.80
2018-12-17T09:14:39.008Z,24.70
2018-12-17T09:17:05.439Z,23.87
2018-12-17T09:19:31.864Z,24.50
2018-12-17T09:21:58.349Z,23.50
2018-12-17T09:24:24.779Z,24.37
2018-12-17T09:26:51.519Z,24.80
2018-12-17T09:29:18.299Z,23.50
2018-12-17T09:31:44.853Z,23.20
2018-12-17T09:34:11.481Z,24.40
2018-12-17T09:36:38.288Z,23.93
2018-12-17T09:39:06.071Z,25.20
2018-12-17T09:41:32.519Z,25.23
2018-12-17T09:43:59.000Z,24.83
2018-12-17T09:46:25.670Z,24.90
2018-12-17T09:48:52.304Z,24.57
2018-12-17T09:51:19.646Z,24.87
2018-12-17T09:53:46.591Z,26.00
2018-12-17T09:56:13.156Z,25.20
2018-12-17T09:58:39.848Z,25.47
2018-12-17T10:01:06.319Z,25.60
2018-12-17T10:03:32.969Z,25.60
2018-12-17T10:05:59.505Z,26.63
2018-12-17T10:08:25.985Z,25.33
2018-12-17T10:10:52.502Z,24.27
2018-12-17T10:13:19.060Z,25.70
2018-12-17T10:15:45.899Z,25.20
2018-12-17T10:18:13.829Z,25.67
2018-12-17T10:20:41.278Z,26.80
2018-12-17T10:23:07.746Z,26.00
2018-12-17T10:25:34.492Z,27.03
2018-12-17T10:28:01.172Z,27.13
2018-12-17T10:30:32.515Z,26.90
2018-12-17T10:32:56.237Z,27.07
2018-12-17T10:35:23.119Z,31.03
2018-12-17T10:37:49.647Z,29.00
2018-12-17T10:40:16.318Z,28.67
2018-12-17T10:42:43.475Z,26.83
2018-12-17T10:45:10.007Z,28.43
2018-12-17T10:47:36.584Z,29.33
2018-12-17T10:50:04.202Z,26.97
2018-12-17T10:52:30.660Z,27.60
2018-12-17T10:54:57.099Z,27.43
2018-12-17T10:57:23.913Z,27.70
2018-12-17T10:59:50.391Z,26.27
2018-12-17T11:02:26.899Z,26.60
2018-12-17T11:04:56.456Z,26.30
2018-12-17T11:07:22.922Z,28.10
2018-12-17T11:09:49.822Z,28.27
2018-12-17T11:12:16.292Z,27.60
2018-12-17T11:14:42.750Z,27.93
2018-12-17T11:17:09.466Z,28.03
2018-12-17T11:19:35.939Z,27.53
2018-12-17T11:22:02.507Z,28.03
2018-12-17T11:24:29.059Z,27.17
2018-12-17T11:26:55.572Z,28.37
2018-12-17T11:29:22.135Z,28.50
2018-12-17T11:31:48.759Z,28.27
2018-12-17T11:34:15.400Z,27.87
2018-12-17T11:36:41.903Z,28.63
2018-12-17T11:39:10.208Z,29.47
2018-12-17T11:41:36.847Z,27.13
2018-12-17T11:44:03.315Z,27.77
2018-12-17T11:46:29.795Z,28.10
2018-12-17T11:48:56.292Z,28.03
2018-12-17T11:51:22.712Z,26.87
2018-12-17T11:53:50.524Z,27.40
2018-12-17T11:56:17.479Z,28.70
2018-12-17T11:58:45.153Z,26.60
2018-12-17T12:01:12.380Z,29.17
2018-12-17T12:03:39.294Z,28.50
2018-12-17T12:06:05.875Z,30.00
2018-12-17T12:08:33.042Z,31.10
2018-12-17T12:11:00.271Z,29.00
2018-12-17T12:13:27.407Z,28.27
2018-12-17T12:15:54.242Z,29.57
2018-12-17T12:18:21.024Z,31.70
2018-12-17T12:20:47.475Z,31.57
2018-12-17T12:23:15.124Z,29.00
2018-12-17T12:25:42.841Z,28.50
2018-12-17T12:28:09.420Z,29.47
2018-12-17T12:30:36.645Z,30.00
2018-12-17T12:33:03.657Z,30.10
2018-12-17T12:35:30.702Z,30.80
2018-12-17T12:37:58.188Z,27.67
2018-12-17T12:40:26.622Z,27.57
2018-12-17T12:42:53.460Z,28.50
2018-12-17T12:45:20.434Z,28.43
2018-12-17T12:47:47.018Z,30.97
2018-12-17T12:50:13.643Z,27.40
2018-12-17T12:52:40.340Z,27.43
2018-12-17T12:55:06.945Z,27.70
2018-12-17T12:57:34.934Z,27.40
2018-12-17T13:00:02.001Z,29.00
2018-12-17T13:02:28.553Z,30.57
2018-12-17T13:04:55.848Z,26.47
2018-12-17T13:07:22.731Z,29.83
2018-12-17T13:09:49.333Z,27.60
2018-12-17T13:12:15.913Z,28.30
2018-12-17T13:14:42.565Z,30.33
2018-12-17T13:17:15.079Z,29.43
2018-12-17T13:19:41.564Z,29.80
2018-12-17T13:22:08.066Z,34.17
2018-12-17T13:24:34.626Z,32.17
2018-12-17T13:27:01.375Z,32.63
2018-12-17T13:29:27.855Z,30.40
2018-12-17T13:31:54.315Z,31.83
2018-12-17T13:34:20.747Z,31.10
2018-12-17T13:36:47.224Z,30.00
2018-12-17T13:39:13.675Z,30.70
2018-12-17T13:41:40.393Z,29.30
2018-12-17T13:44:06.845Z,29.13
2018-12-17T13:46:33.326Z,28.53
2018-12-17T13:48:59.902Z,27.67
2018-12-17T13:51:32.348Z,29.90
2018-12-17T13:53:59.827Z,30.00
2018-12-17T13:56:26.695Z,29.50
2018-12-17T13:58:53.176Z,30.47
2018-12-17T14:01:21.994Z,30.87
2018-12-17T14:03:48.671Z,32.70
2018-12-17T14:06:15.135Z,31.20
2018-12-17T14:08:41.842Z,29.47
2018-12-17T14:11:08.273Z,28.93
2018-12-17T14:13:34.739Z,29.73
2018-12-17T14:16:07.701Z,29.80
2018-12-17T14:18:40.291Z,29.60
2018-12-17T14:21:13.788Z,28.53
2018-12-17T14:23:40.383Z,28.67
2018-12-17T14:26:06.849Z,30.20
2018-12-17T14:28:33.824Z,29.47
2018-12-17T14:31:00.366Z,29.17
2018-12-17T14:33:26.918Z,30.10
2018-12-17T14:35:59.782Z,28.97
2018-12-17T14:38:26.243Z,28.00
2018-12-17T14:40:52.741Z,28.60
2018-12-17T14:43:19.211Z,27.30
2018-12-17T14:45:45.705Z,27.83
2018-12-17T14:48:12.236Z,26.97
2018-12-17T14:50:38.993Z,28.47
2018-12-17T14:53:05.705Z,26.77
2018-12-17T14:55:32.167Z,27.50
2018-12-17T14:57:58.834Z,29.97
2018-12-17T15:00:25.330Z,27.30
2018-12-17T15:02:51.840Z,27.10
2018-12-17T15:05:18.441Z,26.70
2018-12-17T15:07:44.979Z,26.50
2018-12-17T15:10:11.620Z,27.03
2018-12-17T15:12:38.156Z,28.00
2018-12-17T15:15:06.568Z,26.20
2018-12-17T15:17:33.092Z,26.27
2018-12-17T15:19:59.684Z,26.50
2018-12-17T15:22:26.268Z,26.20
2018-12-17T15:24:52.714Z,26.23
2018-12-17T15:27:19.293Z,25.07
2018-12-17T15:29:45.797Z,26.57
2018-12-17T15:32:12.364Z,26.77
2018-12-17T15:34:39.075Z,25.87
2018-12-17T15:37:05.678Z,26.87
2018-12-17T15:39:32.131Z,26.00
2018-12-17T15:41:58.948Z,25.33
2018-12-17T15:44:25.374Z,27.80
2018-12-17T15:46:51.790Z,27.63
2018-12-17T15:49:18.298Z,26.10
2018-12-17T15:51:44.763Z,24.10
2018-12-17T15:54:11.248Z,22.90
2018-12-17T15:56:38.156Z,23.90
2018-12-17T15:59:04.588Z,23.00
2018-12-17T16:01:31.144Z,26.40
2018-12-17T16:03:57.659Z,24.70
2018-12-17T16:06:24.148Z,23.77
2018-12-17T16:08:50.702Z,27.57
2018-12-17T16:11:17.438Z,24.40
2018-12-17T16:13:43.939Z,24.03
2018-12-17T16:16:10.391Z,23.60
2018-12-17T16:18:36.974Z,25.17
2018-12-17T16:21:03.584Z,24.67
2018-12-17T16:23:30.160Z,24.00
2018-12-17T16:25:56.983Z,23.80
2018-12-17T16:28:23.609Z,22.80
2018-12-17T16:30:50.174Z,22.93
2018-12-17T16:33:16.985Z,23.17
2018-12-17T16:35:43.447Z,22.90
2018-12-17T16:38:10.062Z,23.30
2018-12-17T16:40:36.768Z,21.60
2018-12-17T16:43:03.336Z,23.83
2018-12-17T16:45:29.754Z,23.77
2018-12-17T16:47:56.285Z,24.77
2018-12-17T16:50:22.694Z,23.40
2018-12-17T16:52:49.156Z,23.37
2018-12-17T16:55:15.804Z,24.50
2018-12-17T16:57:42.260Z,22.03
2018-12-17T17:00:09.492Z,22.20
2018-12-17T17:02:36.276Z,24.70
2018-12-17T17:05:03.128Z,21.97
2018-12-17T17:07:29.643Z,24.13
2018-12-17T17:09:58.238Z,23.73
2018-12-17T17:12:24.776Z,23.03
2018-12-17T17:14:51.337Z,23.30
2018-12-17T17:17:18.123Z,27.57
2018-12-17T17:19:50.672Z,28.30
2018-12-17T17:22:13.123Z,26.93
2018-12-17T17:24:39.821Z,26.57
2018-12-17T17:27:06.246Z,26.87
2018-12-17T17:29:32.746Z,26.03
2018-12-17T17:31:59.707Z,26.50
2018-12-17T17:34:26.181Z,27.10
2018-12-17T17:36:52.571Z,25.20
2018-12-17T17:39:19.215Z,26.10
2018-12-17T17:41:45.792Z,26.90
2018-12-17T17:44:12.259Z,30.13
2018-12-17T17:46:38.965Z,25.43
2018-12-17T17:49:05.489Z,28.60
2018-12-17T17:51:32.054Z,27.33
2018-12-17T17:53:58.639Z,27.87
2018-12-17T17:56:25.107Z,27.30
2018-12-17T17:58:51.619Z,27.03
2018-12-17T18:01:18.367Z,26.53
2018-12-17T18:03:44.885Z,25.90
2018-12-17T18:06:16.187Z,26.17
2018-12-17T18:08:40.127Z,26.93
2018-12-17T18:11:06.616Z,24.87
2018-12-17T18:13:33.136Z,27.97
2018-12-17T18:15:59.927Z,26.27
2018-12-17T18:18:26.420Z,25.63
2018-12-17T18:20:52.980Z,26.23
2018-12-17T18:23:19.484Z,27.87
2018-12-17T18:25:45.998Z,26.17
2018-12-17T18:28:12.463Z,28.83
2018-12-17T18:30:39.245Z,30.70
2018-12-17T18:33:05.663Z,27.50
2018-12-17T18:35:32.119Z,29.30
2018-12-17T18:37:58.657Z,29.53
2018-12-17T18:40:25.152Z,28.77
2018-12-17T18:42:51.750Z,29.87
2018-12-17T18:45:18.211Z,28.33
2018-12-17T18:47:44.703Z,32.80
2018-12-17T18:50:11.356Z,30.30
2018-12-17T18:52:38.163Z,26.67
2018-12-17T18:55:04.878Z,30.47
2018-12-17T18:57:31.746Z,25.93
2018-12-17T18:59:58.259Z,28.77
2018-12-17T19:02:24.779Z,25.80
2018-12-17T19:04:51.227Z,27.23
2018-12-17T19:07:18.102Z,30.80
2018-12-17T19:09:44.630Z,30.17
2018-12-17T19:12:11.128Z,29.67
2018-12-17T19:14:37.590Z,30.97
2018-12-17T19:17:04.107Z,33.43
2018-12-17T19:19:30.446Z,28.77
2018-12-17T19:21:57.252Z,31.70
2018-12-17T19:24:23.715Z,28.50
2018-12-17T19:26:50.213Z,28.70
2018-12-17T19:29:17.023Z,29.10
2018-12-17T19:31:43.549Z,27.10
2018-12-17T19:34:10.058Z,27.53
2018-12-17T19:36:36.622Z,26.80
2018-12-17T19:39:04.973Z,25.13
2018-12-17T19:41:31.523Z,25.87
2018-12-17T19:43:58.216Z,25.90
2018-12-17T19:46:24.693Z,29.37
2018-12-17T19:48:58.325Z,25.60
2018-12-17T19:51:24.738Z,27.80
2018-12-17T19:53:51.293Z,28.90
2018-12-17T19:56:17.841Z,29.37
2018-12-17T19:58:44.274Z,28.60
2018-12-17T20:01:10.699Z,28.37
2018-12-17T20:03:37.188Z,26.47
2018-12-17T20:06:03.639Z,27.43
2018-12-17T20:08:30.106Z,26.80
2018-12-17T20:10:56.657Z,29.63
2018-12-17T20:13:23.215Z,27.53
2018-12-17T20:15:49.876Z,28.90
2018-12-17T20:18:16.659Z,26.43
2018-12-17T20:20:43.136Z,27.07
2018-12-17T20:23:09.601Z,27.50
2018-12-17T20:25:36.417Z,26.87
2018-12-17T20:28:02.988Z,26.60
2018-12-17T20:30:29.464Z,25.57
2018-12-17T20:32:55.970Z,26.30
2018-12-17T20:35:22.398Z,25.73
2018-12-17T20:37:48.880Z,26.13
2018-12-17T20:40:15.510Z,25.73
2018-12-17T20:42:42.017Z,25.10
2018-12-17T20:45:08.544Z,26.37
2018-12-17T20:47:42.359Z,27.10
2018-12-17T20:50:08.820Z,25.57
2018-12-17T20:52:35.264Z,28.20
2018-12-17T20:55:01.781Z,28.30
2018-12-17T20:57:28.286Z,27.07
2018-12-17T20:59:54.748Z,24.77
2018-12-17T21:02:21.605Z,26.43
2018-12-17T21:04:48.091Z,24.77
2018-12-17T21:07:15.041Z,25.73
2018-12-17T21:09:48.454Z,27.37
2018-12-17T21:12:14.911Z,27.13
2018-12-17T21:14:48.205Z,25.67
2018-12-17T21:17:14.740Z,27.47
2018-12-17T21:19:41.208Z,27.17
2018-12-17T21:22:08.226Z,26.80
2018-12-17T21:24:34.760Z,25.80
2018-12-17T21:27:01.231Z,27.57
2018-12-17T21:29:27.798Z,26.30
2018-12-17T21:31:54.275Z,26.97
2018-12-17T21:34:20.713Z,28.13
2018-12-17T21:36:47.155Z,30.57
2018-12-17T21:39:14.048Z,32.67
2018-12-17T21:41:40.541Z,29.60
2018-12-17T21:44:07.000Z,29.70
2018-12-17T21:46:34.090Z,28.13
2018-12-17T21:49:00.738Z,29.07
2018-12-17T21:51:27.200Z,27.27
2018-12-17T21:53:53.760Z,28.33
2018-12-17T21:56:20.261Z,26.80
2018-12-17T21:58:46.711Z,26.57
2018-12-17T22:01:13.629Z,26.47
2018-12-17T22:03:40.154Z,25.67
2018-12-17T22:06:06.627Z,28.57
2018-12-17T22:08:33.396Z,29.20
2018-12-17T22:10:59.884Z,27.00
2018-12-17T22:13:27.103Z,25.83
2018-12-17T22:15:54.079Z,30.20
2018-12-17T22:18:20.551Z,28.10
2018-12-17T22:20:46.970Z,28.23
2018-12-17T22:23:13.492Z,29.90
2018-12-17T22:25:40.000Z,28.70
2018-12-17T22:28:06.591Z,26.77
2018-12-17T22:30:33.254Z,25.50
2018-12-17T22:32:59.717Z,26.63
2018-12-17T22:35:26.146Z,26.53
2018-12-17T22:37:52.826Z,27.13
2018-12-17T22:40:19.246Z,26.80
2018-12-17T22:42:45.840Z,25.93
2018-12-17T22:45:12.399Z,26.50
2018-12-17T22:47:38.830Z,24.30
2018-12-17T22:50:05.531Z,24.87
2018-12-17T22:52:32.295Z,25.50
2018-12-17T22:54:58.780Z,23.70
2018-12-17T22:57:25.298Z,23.43
2018-12-17T22:59:51.958Z,24.57
2018-12-17T23:02:18.508Z,25.17
2018-12-17T23:04:45.094Z,25.20
2018-12-17T23:07:11.951Z,26.37
2018-12-17T23:09:44.591Z,24.27
2018-12-17T23:12:17.252Z,26.60
2018-12-17T23:14:49.944Z,26.87
2018-12-17T23:17:22.829Z,24.40
2018-12-17T23:19:49.332Z,23.90
2018-12-17T23:22:15.997Z,25.30
2018-12-17T23:24:42.860Z,24.70
2018-12-17T23:27:09.515Z,24.73
2018-12-17T23:29:35.958Z,25.20
2018-12-17T23:32:03.615Z,23.83
2018-12-17T23:34:30.091Z,23.07
2018-12-17T23:36:56.712Z,23.50
2018-12-17T23:39:23.245Z,23.37
2018-12-17T23:41:49.793Z,23.60
2018-12-17T23:44:16.288Z,22.40
2018-12-17T23:46:43.783Z,23.10
2018-12-17T23:49:12.480Z,24.20
2018-12-17T23:51:40.039Z,23.50
2018-12-17T23:54:08.968Z,23.70
2018-12-17T23:56:35.685Z,22.47
